sensor_id;sensor_type;location;lat;lon;timestamp;P1;durP1;ratioP1;P2;durP2;ratioP2
41927;SDS011;27616;51.420;6.788;2022-09-03T00:01:30;3.22;;;1.90;;
41927;SDS011;27616;51.420;6.788;2022-09-03T00:04:03;2.13;;;1.30;;
41927;SDS011;27616;51.420;6.788;2022-09-03T00:06:37;4.25;;;1.50;;
41927;SDS011;27616;51.420;6.788;2022-09-03T00:09:29;3.08;;;1.50;;
41927;SDS011;27616;51.420;6.788;2022-09-03T00:12:20;3.35;;;1.52;;
41927;SDS011;27616;51.420;6.788;2022-09-03T00:14:51;4.22;;;1.40;;
41927;SDS011;27616;51.420;6.788;2022-09-03T00:17:23;3.95;;;1.55;;
41927;SDS011;27616;51.420;6.788;2022-09-03T00:22:36;3.88;;;2.00;;
41927;SDS011;27616;51.420;6.788;2022-09-03T00:28:27;5.10;;;1.73;;
41927;SDS011;27616;51.420;6.788;2022-09-03T00:31:42;2.97;;;1.23;;
41927;SDS011;27616;51.420;6.788;2022-09-03T00:34:14;1.98;;;1.20;;
41927;SDS011;27616;51.420;6.788;2022-09-03T00:36:48;3.90;;;1.42;;
41927;SDS011;27616;51.420;6.788;2022-09-03T00:39:18;2.45;;;1.08;;
41927;SDS011;27616;51.420;6.788;2022-09-03T00:59:39;4.57;;;1.30;;
41927;SDS011;27616;51.420;6.788;2022-09-03T01:10:34;1.60;;;1.00;;
41927;SDS011;27616;51.420;6.788;2022-09-03T01:18:36;1.92;;;0.95;;
41927;SDS011;27616;51.420;6.788;2022-09-03T01:29:27;4.32;;;1.20;;
41927;SDS011;27616;51.420;6.788;2022-09-03T01:33:02;2.42;;;1.13;;
41927;SDS011;27616;51.420;6.788;2022-09-03T01:35:09;2.17;;;1.20;;
41927;SDS011;27616;51.420;6.788;2022-09-03T01:37:41;2.38;;;1.17;;
41927;SDS011;27616;51.420;6.788;2022-09-03T01:40:40;3.33;;;1.00;;
41927;SDS011;27616;51.420;6.788;2022-09-03T01:46:18;2.83;;;1.00;;
41927;SDS011;27616;51.420;6.788;2022-09-03T01:51:35;1.63;;;1.02;;
41927;SDS011;27616;51.420;6.788;2022-09-03T02:02:07;2.85;;;1.30;;
41927;SDS011;27616;51.420;6.788;2022-09-03T02:04:56;2.80;;;1.20;;
41927;SDS011;27616;51.420;6.788;2022-09-03T02:07:23;2.80;;;1.30;;
41927;SDS011;27616;51.420;6.788;2022-09-03T02:09:57;3.58;;;1.45;;
41927;SDS011;27616;51.420;6.788;2022-09-03T02:12:25;3.08;;;1.50;;
41927;SDS011;27616;51.420;6.788;2022-09-03T02:14:53;1.98;;;1.20;;
41927;SDS011;27616;51.420;6.788;2022-09-03T02:17:20;3.25;;;1.55;;
41927;SDS011;27616;51.420;6.788;2022-09-03T02:19:46;2.50;;;1.30;;
41927;SDS011;27616;51.420;6.788;2022-09-03T02:22:11;3.05;;;1.50;;
41927;SDS011;27616;51.420;6.788;2022-09-03T02:24:37;3.53;;;1.33;;
41927;SDS011;27616;51.420;6.788;2022-09-03T02:27:04;4.28;;;1.40;;
41927;SDS011;27616;51.420;6.788;2022-09-03T02:29:30;4.10;;;1.30;;
41927;SDS011;27616;51.420;6.788;2022-09-03T02:31:56;4.38;;;1.67;;
41927;SDS011;27616;51.420;6.788;2022-09-03T02:34:22;5.20;;;1.30;;
41927;SDS011;27616;51.420;6.788;2022-09-03T02:36:48;5.40;;;1.80;;
41927;SDS011;27616;51.420;6.788;2022-09-03T02:39:15;5.43;;;1.67;;
41927;SDS011;27616;51.420;6.788;2022-09-03T02:41:41;3.78;;;1.58;;
41927;SDS011;27616;51.420;6.788;2022-09-03T02:46:52;3.55;;;1.40;;
41927;SDS011;27616;51.420;6.788;2022-09-03T02:49:23;4.18;;;1.50;;
41927;SDS011;27616;51.420;6.788;2022-09-03T02:51:49;4.97;;;1.30;;
41927;SDS011;27616;51.420;6.788;2022-09-03T02:54:15;2.90;;;1.30;;
41927;SDS011;27616;51.420;6.788;2022-09-03T02:56:41;4.97;;;1.40;;
41927;SDS011;27616;51.420;6.788;2022-09-03T02:59:07;4.43;;;1.48;;
41927;SDS011;27616;51.420;6.788;2022-09-03T03:01:34;4.78;;;2.17;;
41927;SDS011;27616;51.420;6.788;2022-09-03T03:04:00;4.40;;;2.17;;
41927;SDS011;27616;51.420;6.788;2022-09-03T03:06:26;3.80;;;1.65;;
41927;SDS011;27616;51.420;6.788;2022-09-03T03:08:52;4.25;;;1.50;;
41927;SDS011;27616;51.420;6.788;2022-09-03T03:11:19;4.32;;;1.63;;
41927;SDS011;27616;51.420;6.788;2022-09-03T03:13:47;2.67;;;1.52;;
41927;SDS011;27616;51.420;6.788;2022-09-03T03:16:13;4.57;;;1.48;;
41927;SDS011;27616;51.420;6.788;2022-09-03T03:18:40;3.83;;;1.40;;
41927;SDS011;27616;51.420;6.788;2022-09-03T03:21:06;3.88;;;1.40;;
41927;SDS011;27616;51.420;6.788;2022-09-03T03:23:34;3.15;;;1.35;;
41927;SDS011;27616;51.420;6.788;2022-09-03T03:26:01;2.90;;;1.35;;
41927;SDS011;27616;51.420;6.788;2022-09-03T03:28:28;3.80;;;1.48;;
41927;SDS011;27616;51.420;6.788;2022-09-03T03:30:58;3.80;;;1.25;;
41927;SDS011;27616;51.420;6.788;2022-09-03T03:33:29;3.85;;;1.40;;
41927;SDS011;27616;51.420;6.788;2022-09-03T03:35:55;3.05;;;1.30;;
41927;SDS011;27616;51.420;6.788;2022-09-03T03:38:20;4.13;;;1.30;;
41927;SDS011;27616;51.420;6.788;2022-09-03T03:40:46;2.65;;;1.30;;
41927;SDS011;27616;51.420;6.788;2022-09-03T03:43:12;3.88;;;1.15;;
41927;SDS011;27616;51.420;6.788;2022-09-03T03:45:37;3.30;;;1.35;;
41927;SDS011;27616;51.420;6.788;2022-09-03T03:48:03;2.75;;;1.35;;
41927;SDS011;27616;51.420;6.788;2022-09-03T03:50:29;2.30;;;1.30;;
41927;SDS011;27616;51.420;6.788;2022-09-03T03:52:58;2.33;;;1.40;;
41927;SDS011;27616;51.420;6.788;2022-09-03T03:55:24;2.45;;;1.50;;
41927;SDS011;27616;51.420;6.788;2022-09-03T03:57:50;4.85;;;1.75;;
41927;SDS011;27616;51.420;6.788;2022-09-03T04:00:16;3.20;;;1.65;;
41927;SDS011;27616;51.420;6.788;2022-09-03T04:02:42;3.25;;;1.40;;
41927;SDS011;27616;51.420;6.788;2022-09-03T04:05:08;3.53;;;1.88;;
41927;SDS011;27616;51.420;6.788;2022-09-03T04:07:34;3.08;;;1.48;;
41927;SDS011;27616;51.420;6.788;2022-09-03T04:09:59;2.58;;;1.30;;
41927;SDS011;27616;51.420;6.788;2022-09-03T04:12:25;2.00;;;1.20;;
41927;SDS011;27616;51.420;6.788;2022-09-03T04:14:52;3.13;;;1.40;;
41927;SDS011;27616;51.420;6.788;2022-09-03T04:17:17;2.60;;;1.40;;
41927;SDS011;27616;51.420;6.788;2022-09-03T04:19:43;2.70;;;1.23;;
41927;SDS011;27616;51.420;6.788;2022-09-03T04:22:12;3.80;;;1.45;;
41927;SDS011;27616;51.420;6.788;2022-09-03T04:24:39;3.65;;;1.52;;
41927;SDS011;27616;51.420;6.788;2022-09-03T04:27:05;3.47;;;1.38;;
41927;SDS011;27616;51.420;6.788;2022-09-03T04:29:31;6.88;;;1.70;;
41927;SDS011;27616;51.420;6.788;2022-09-03T04:31:56;3.17;;;1.33;;
41927;SDS011;27616;51.420;6.788;2022-09-03T04:34:41;3.15;;;1.63;;
41927;SDS011;27616;51.420;6.788;2022-09-03T04:37:06;5.03;;;1.80;;
41927;SDS011;27616;51.420;6.788;2022-09-03T04:39:34;8.07;;;1.80;;
41927;SDS011;27616;51.420;6.788;2022-09-03T04:41:59;3.63;;;1.65;;
41927;SDS011;27616;51.420;6.788;2022-09-03T04:44:25;3.50;;;1.80;;
41927;SDS011;27616;51.420;6.788;2022-09-03T04:46:51;5.28;;;1.77;;
41927;SDS011;27616;51.420;6.788;2022-09-03T04:49:17;1.90;;;1.40;;
41927;SDS011;27616;51.420;6.788;2022-09-03T04:51:43;3.13;;;1.60;;
41927;SDS011;27616;51.420;6.788;2022-09-03T04:54:09;7.22;;;2.05;;
41927;SDS011;27616;51.420;6.788;2022-09-03T04:56:35;3.22;;;1.77;;
41927;SDS011;27616;51.420;6.788;2022-09-03T04:59:04;4.35;;;1.48;;
41927;SDS011;27616;51.420;6.788;2022-09-03T05:01:32;3.58;;;1.42;;
41927;SDS011;27616;51.420;6.788;2022-09-03T05:03:59;3.00;;;1.42;;
41927;SDS011;27616;51.420;6.788;2022-09-03T05:06:26;3.75;;;1.63;;
41927;SDS011;27616;51.420;6.788;2022-09-03T05:08:53;2.58;;;1.48;;
41927;SDS011;27616;51.420;6.788;2022-09-03T05:11:20;5.95;;;1.50;;
41927;SDS011;27616;51.420;6.788;2022-09-03T05:13:47;4.43;;;1.80;;
41927;SDS011;27616;51.420;6.788;2022-09-03T05:16:14;3.05;;;1.50;;
41927;SDS011;27616;51.420;6.788;2022-09-03T05:18:40;3.72;;;1.67;;
41927;SDS011;27616;51.420;6.788;2022-09-03T05:21:07;6.20;;;1.77;;
41927;SDS011;27616;51.420;6.788;2022-09-03T05:23:36;5.75;;;2.00;;
41927;SDS011;27616;51.420;6.788;2022-09-03T05:26:08;5.07;;;1.85;;
41927;SDS011;27616;51.420;6.788;2022-09-03T05:28:36;4.25;;;1.50;;
41927;SDS011;27616;51.420;6.788;2022-09-03T05:31:07;5.47;;;1.75;;
41927;SDS011;27616;51.420;6.788;2022-09-03T05:33:42;3.97;;;1.65;;
41927;SDS011;27616;51.420;6.788;2022-09-03T05:36:13;3.75;;;1.55;;
41927;SDS011;27616;51.420;6.788;2022-09-03T05:38:41;3.03;;;1.50;;
41927;SDS011;27616;51.420;6.788;2022-09-03T05:41:08;3.58;;;1.60;;
41927;SDS011;27616;51.420;6.788;2022-09-03T05:43:35;4.57;;;1.50;;
41927;SDS011;27616;51.420;6.788;2022-09-03T05:46:05;3.95;;;1.70;;
41927;SDS011;27616;51.420;6.788;2022-09-03T05:48:34;3.47;;;1.60;;
41927;SDS011;27616;51.420;6.788;2022-09-03T05:51:01;4.15;;;1.73;;
41927;SDS011;27616;51.420;6.788;2022-09-03T05:53:45;4.45;;;1.60;;
41927;SDS011;27616;51.420;6.788;2022-09-03T05:56:19;3.65;;;1.52;;
41927;SDS011;27616;51.420;6.788;2022-09-03T05:58:52;2.42;;;1.40;;
41927;SDS011;27616;51.420;6.788;2022-09-03T06:01:28;3.88;;;1.80;;
41927;SDS011;27616;51.420;6.788;2022-09-03T06:04:00;3.78;;;1.60;;
41927;SDS011;27616;51.420;6.788;2022-09-03T06:06:34;5.65;;;2.15;;
41927;SDS011;27616;51.420;6.788;2022-09-03T06:09:05;5.55;;;2.90;;
41927;SDS011;27616;51.420;6.788;2022-09-03T06:11:54;5.78;;;3.42;;
41927;SDS011;27616;51.420;6.788;2022-09-03T06:14:20;4.95;;;2.10;;
41927;SDS011;27616;51.420;6.788;2022-09-03T06:16:49;5.07;;;2.00;;
41927;SDS011;27616;51.420;6.788;2022-09-03T06:19:16;4.47;;;1.60;;
41927;SDS011;27616;51.420;6.788;2022-09-03T06:21:43;3.60;;;1.65;;
41927;SDS011;27616;51.420;6.788;2022-09-03T06:24:10;3.03;;;1.70;;
41927;SDS011;27616;51.420;6.788;2022-09-03T06:26:41;3.70;;;1.50;;
41927;SDS011;27616;51.420;6.788;2022-09-03T06:29:07;3.35;;;1.60;;
41927;SDS011;27616;51.420;6.788;2022-09-03T06:31:33;4.60;;;1.67;;
41927;SDS011;27616;51.420;6.788;2022-09-03T06:33:59;4.25;;;2.00;;
41927;SDS011;27616;51.420;6.788;2022-09-03T06:36:28;5.45;;;1.80;;
41927;SDS011;27616;51.420;6.788;2022-09-03T06:38:54;3.53;;;1.90;;
41927;SDS011;27616;51.420;6.788;2022-09-03T06:41:22;4.95;;;1.92;;
41927;SDS011;27616;51.420;6.788;2022-09-03T06:43:53;5.30;;;1.80;;
41927;SDS011;27616;51.420;6.788;2022-09-03T06:46:23;5.55;;;2.13;;
41927;SDS011;27616;51.420;6.788;2022-09-03T06:48:49;5.13;;;1.88;;
41927;SDS011;27616;51.420;6.788;2022-09-03T06:51:17;4.45;;;1.88;;
41927;SDS011;27616;51.420;6.788;2022-09-03T06:53:48;5.80;;;1.95;;
41927;SDS011;27616;51.420;6.788;2022-09-03T06:56:16;3.42;;;1.80;;
41927;SDS011;27616;51.420;6.788;2022-09-03T06:58:47;3.78;;;1.75;;
41927;SDS011;27616;51.420;6.788;2022-09-03T07:01:17;4.90;;;1.90;;
41927;SDS011;27616;51.420;6.788;2022-09-03T07:03:45;4.80;;;1.85;;
41927;SDS011;27616;51.420;6.788;2022-09-03T07:06:16;5.50;;;1.80;;
41927;SDS011;27616;51.420;6.788;2022-09-03T07:08:43;4.00;;;1.40;;
41927;SDS011;27616;51.420;6.788;2022-09-03T07:11:11;3.47;;;1.77;;
41927;SDS011;27616;51.420;6.788;2022-09-03T07:13:42;3.80;;;1.55;;
41927;SDS011;27616;51.420;6.788;2022-09-03T07:16:16;2.47;;;1.40;;
41927;SDS011;27616;51.420;6.788;2022-09-03T07:18:46;5.43;;;2.10;;
41927;SDS011;27616;51.420;6.788;2022-09-03T07:21:14;3.00;;;1.52;;
41927;SDS011;27616;51.420;6.788;2022-09-03T07:23:41;4.30;;;1.75;;
41927;SDS011;27616;51.420;6.788;2022-09-03T07:26:08;2.45;;;1.45;;
41927;SDS011;27616;51.420;6.788;2022-09-03T07:28:40;4.53;;;1.70;;
41927;SDS011;27616;51.420;6.788;2022-09-03T07:31:11;4.05;;;1.50;;
41927;SDS011;27616;51.420;6.788;2022-09-03T07:33:43;5.03;;;1.88;;
41927;SDS011;27616;51.420;6.788;2022-09-03T07:36:11;5.00;;;2.33;;
41927;SDS011;27616;51.420;6.788;2022-09-03T07:38:39;3.35;;;1.33;;
41927;SDS011;27616;51.420;6.788;2022-09-03T07:41:07;3.20;;;1.38;;
41927;SDS011;27616;51.420;6.788;2022-09-03T07:43:37;3.17;;;1.33;;
41927;SDS011;27616;51.420;6.788;2022-09-03T07:46:10;2.28;;;0.98;;
41927;SDS011;27616;51.420;6.788;2022-09-03T07:48:47;3.25;;;1.33;;
41927;SDS011;27616;51.420;6.788;2022-09-03T07:51:17;1.88;;;1.10;;
41927;SDS011;27616;51.420;6.788;2022-09-03T07:53:45;1.98;;;1.10;;
41927;SDS011;27616;51.420;6.788;2022-09-03T07:56:12;2.15;;;1.27;;
41927;SDS011;27616;51.420;6.788;2022-09-03T07:58:38;3.55;;;1.60;;
41927;SDS011;27616;51.420;6.788;2022-09-03T08:01:10;4.57;;;1.55;;
41927;SDS011;27616;51.420;6.788;2022-09-03T08:03:37;6.25;;;1.40;;
41927;SDS011;27616;51.420;6.788;2022-09-03T08:06:07;3.05;;;1.70;;
41927;SDS011;27616;51.420;6.788;2022-09-03T08:08:33;2.20;;;1.20;;
41927;SDS011;27616;51.420;6.788;2022-09-03T08:11:08;2.13;;;1.20;;
41927;SDS011;27616;51.420;6.788;2022-09-03T08:13:42;2.20;;;1.10;;
41927;SDS011;27616;51.420;6.788;2022-09-03T08:16:10;3.03;;;1.40;;
41927;SDS011;27616;51.420;6.788;2022-09-03T08:18:37;3.90;;;1.65;;
41927;SDS011;27616;51.420;6.788;2022-09-03T08:21:08;2.70;;;1.20;;
41927;SDS011;27616;51.420;6.788;2022-09-03T08:23:38;2.15;;;1.20;;
41927;SDS011;27616;51.420;6.788;2022-09-03T08:26:05;3.38;;;1.40;;
41927;SDS011;27616;51.420;6.788;2022-09-03T08:28:32;3.22;;;1.40;;
41927;SDS011;27616;51.420;6.788;2022-09-03T08:31:03;4.57;;;2.80;;
41927;SDS011;27616;51.420;6.788;2022-09-03T08:33:35;3.38;;;1.23;;
41927;SDS011;27616;51.420;6.788;2022-09-03T08:36:09;4.50;;;1.20;;
41927;SDS011;27616;51.420;6.788;2022-09-03T08:38:37;2.80;;;1.30;;
41927;SDS011;27616;51.420;6.788;2022-09-03T08:43:31;3.47;;;1.20;;
41927;SDS011;27616;51.420;6.788;2022-09-03T08:46:03;5.00;;;1.40;;
41927;SDS011;27616;51.420;6.788;2022-09-03T08:48:28;3.08;;;1.40;;
41927;SDS011;27616;51.420;6.788;2022-09-03T08:50:56;3.45;;;1.20;;
41927;SDS011;27616;51.420;6.788;2022-09-03T08:53:40;3.70;;;1.20;;
41927;SDS011;27616;51.420;6.788;2022-09-03T08:56:26;2.67;;;1.50;;
41927;SDS011;27616;51.420;6.788;2022-09-03T08:58:54;4.78;;;1.30;;
41927;SDS011;27616;51.420;6.788;2022-09-03T09:01:34;2.85;;;1.35;;
41927;SDS011;27616;51.420;6.788;2022-09-03T09:07:10;3.95;;;1.38;;
41927;SDS011;27616;51.420;6.788;2022-09-03T09:10:11;2.75;;;1.20;;
41927;SDS011;27616;51.420;6.788;2022-09-03T09:16:02;3.13;;;1.40;;
41927;SDS011;27616;51.420;6.788;2022-09-03T09:21:55;2.42;;;1.40;;
41927;SDS011;27616;51.420;6.788;2022-09-03T09:24:37;3.75;;;1.38;;
41927;SDS011;27616;51.420;6.788;2022-09-03T09:27:06;2.95;;;1.17;;
41927;SDS011;27616;51.420;6.788;2022-09-03T09:29:34;2.53;;;1.60;;
41927;SDS011;27616;51.420;6.788;2022-09-03T09:32:01;3.38;;;1.45;;
41927;SDS011;27616;51.420;6.788;2022-09-03T09:34:34;2.88;;;1.45;;
41927;SDS011;27616;51.420;6.788;2022-09-03T09:37:02;3.95;;;1.63;;
41927;SDS011;27616;51.420;6.788;2022-09-03T09:39:33;1.95;;;1.15;;
41927;SDS011;27616;51.420;6.788;2022-09-03T09:42:06;4.60;;;1.60;;
41927;SDS011;27616;51.420;6.788;2022-09-03T09:44:38;2.42;;;1.50;;
41927;SDS011;27616;51.420;6.788;2022-09-03T09:47:07;3.95;;;1.38;;
41927;SDS011;27616;51.420;6.788;2022-09-03T09:52:11;2.20;;;1.20;;
41927;SDS011;27616;51.420;6.788;2022-09-03T09:57:07;1.67;;;1.13;;
41927;SDS011;27616;51.420;6.788;2022-09-03T09:59:46;3.50;;;1.40;;
41927;SDS011;27616;51.420;6.788;2022-09-03T10:02:23;1.88;;;1.40;;
41927;SDS011;27616;51.420;6.788;2022-09-03T10:04:51;3.22;;;1.30;;
41927;SDS011;27616;51.420;6.788;2022-09-03T10:09:56;3.20;;;1.20;;
41927;SDS011;27616;51.420;6.788;2022-09-03T10:12:32;6.90;;;3.67;;
41927;SDS011;27616;51.420;6.788;2022-09-03T10:26:26;2.58;;;1.40;;
41927;SDS011;27616;51.420;6.788;2022-09-03T10:28:58;3.22;;;1.90;;
41927;SDS011;27616;51.420;6.788;2022-09-03T10:31:44;4.00;;;1.83;;
41927;SDS011;27616;51.420;6.788;2022-09-03T10:34:47;4.03;;;2.35;;
41927;SDS011;27616;51.420;6.788;2022-09-03T10:45:59;4.07;;;1.98;;
41927;SDS011;27616;51.420;6.788;2022-09-03T10:51:25;3.50;;;2.10;;
41927;SDS011;27616;51.420;6.788;2022-09-03T11:11:06;3.35;;;1.60;;
41927;SDS011;27616;51.420;6.788;2022-09-03T11:13:45;3.35;;;2.00;;
41927;SDS011;27616;51.420;6.788;2022-09-03T11:16:23;7.10;;;3.20;;
41927;SDS011;27616;51.420;6.788;2022-09-03T11:21:19;3.38;;;2.60;;
41927;SDS011;27616;51.420;6.788;2022-09-03T11:24:22;5.70;;;2.45;;
41927;SDS011;27616;51.420;6.788;2022-09-03T11:26:47;3.53;;;2.00;;
41927;SDS011;27616;51.420;6.788;2022-09-03T11:29:25;3.40;;;1.73;;
41927;SDS011;27616;51.420;6.788;2022-09-03T11:32:15;3.10;;;1.70;;
41927;SDS011;27616;51.420;6.788;2022-09-03T11:34:51;3.55;;;1.92;;
41927;SDS011;27616;51.420;6.788;2022-09-03T11:37:22;4.20;;;2.03;;
41927;SDS011;27616;51.420;6.788;2022-09-03T11:39:53;2.55;;;1.90;;
41927;SDS011;27616;51.420;6.788;2022-09-03T11:42:36;3.55;;;1.90;;
41927;SDS011;27616;51.420;6.788;2022-09-03T11:45:14;3.85;;;2.22;;
41927;SDS011;27616;51.420;6.788;2022-09-03T11:47:50;3.13;;;2.00;;
41927;SDS011;27616;51.420;6.788;2022-09-03T11:50:18;3.78;;;1.90;;
41927;SDS011;27616;51.420;6.788;2022-09-03T11:52:47;3.38;;;1.88;;
41927;SDS011;27616;51.420;6.788;2022-09-03T11:55:25;2.70;;;1.80;;
41927;SDS011;27616;51.420;6.788;2022-09-03T11:57:57;4.50;;;2.45;;
41927;SDS011;27616;51.420;6.788;2022-09-03T12:00:42;3.75;;;2.35;;
41927;SDS011;27616;51.420;6.788;2022-09-03T12:03:11;3.60;;;2.30;;
41927;SDS011;27616;51.420;6.788;2022-09-03T12:06:03;2.92;;;2.08;;
41927;SDS011;27616;51.420;6.788;2022-09-03T12:12:05;3.38;;;2.40;;
41927;SDS011;27616;51.420;6.788;2022-09-03T12:17:27;4.13;;;2.22;;
41927;SDS011;27616;51.420;6.788;2022-09-03T12:20:37;4.13;;;2.63;;
41927;SDS011;27616;51.420;6.788;2022-09-03T12:23:04;4.18;;;2.35;;
41927;SDS011;27616;51.420;6.788;2022-09-03T12:25:30;2.67;;;2.13;;
41927;SDS011;27616;51.420;6.788;2022-09-03T12:27:56;3.95;;;1.50;;
41927;SDS011;27616;51.420;6.788;2022-09-03T12:30:28;4.57;;;1.90;;
41927;SDS011;27616;51.420;6.788;2022-09-03T12:33:05;3.78;;;1.92;;
41927;SDS011;27616;51.420;6.788;2022-09-03T12:35:31;3.63;;;1.85;;
41927;SDS011;27616;51.420;6.788;2022-09-03T12:37:57;2.85;;;1.80;;
41927;SDS011;27616;51.420;6.788;2022-09-03T12:40:24;3.53;;;1.88;;
41927;SDS011;27616;51.420;6.788;2022-09-03T12:42:53;3.80;;;1.85;;
41927;SDS011;27616;51.420;6.788;2022-09-03T12:45:23;3.83;;;1.85;;
41927;SDS011;27616;51.420;6.788;2022-09-03T12:47:51;4.40;;;2.33;;
41927;SDS011;27616;51.420;6.788;2022-09-03T12:50:18;4.43;;;2.63;;
41927;SDS011;27616;51.420;6.788;2022-09-03T12:55:25;5.10;;;3.25;;
41927;SDS011;27616;51.420;6.788;2022-09-03T13:00:36;4.13;;;2.38;;
41927;SDS011;27616;51.420;6.788;2022-09-03T13:03:11;5.43;;;2.30;;
41927;SDS011;27616;51.420;6.788;2022-09-03T13:06:05;3.58;;;2.03;;
41927;SDS011;27616;51.420;6.788;2022-09-03T13:08:40;3.72;;;2.15;;
41927;SDS011;27616;51.420;6.788;2022-09-03T13:11:15;4.65;;;2.20;;
41927;SDS011;27616;51.420;6.788;2022-09-03T13:16:49;3.22;;;2.00;;
41927;SDS011;27616;51.420;6.788;2022-09-03T13:22:24;2.42;;;1.70;;
41927;SDS011;27616;51.420;6.788;2022-09-03T13:27:53;3.03;;;1.65;;
41927;SDS011;27616;51.420;6.788;2022-09-03T13:33:19;4.20;;;2.30;;
41927;SDS011;27616;51.420;6.788;2022-09-03T13:35:50;4.03;;;2.20;;
41927;SDS011;27616;51.420;6.788;2022-09-03T13:44:13;4.75;;;3.00;;
41927;SDS011;27616;51.420;6.788;2022-09-03T13:47:25;4.10;;;2.80;;
41927;SDS011;27616;51.420;6.788;2022-09-03T13:50:03;5.63;;;2.60;;
41927;SDS011;27616;51.420;6.788;2022-09-03T13:52:50;4.93;;;2.60;;
41927;SDS011;27616;51.420;6.788;2022-09-03T13:55:34;4.07;;;2.50;;
41927;SDS011;27616;51.420;6.788;2022-09-03T13:58:17;4.65;;;2.50;;
41927;SDS011;27616;51.420;6.788;2022-09-03T14:00:53;2.95;;;2.08;;
41927;SDS011;27616;51.420;6.788;2022-09-03T14:06:23;4.95;;;2.13;;
41927;SDS011;27616;51.420;6.788;2022-09-03T14:09:09;2.83;;;2.08;;
41927;SDS011;27616;51.420;6.788;2022-09-03T14:25:26;4.43;;;2.55;;
41927;SDS011;27616;51.420;6.788;2022-09-03T14:27:53;5.00;;;2.80;;
41927;SDS011;27616;51.420;6.788;2022-09-03T14:33:19;2.58;;;2.03;;
41927;SDS011;27616;51.420;6.788;2022-09-03T15:06:39;3.45;;;2.00;;
41927;SDS011;27616;51.420;6.788;2022-09-03T15:11:59;3.42;;;2.10;;
41927;SDS011;27616;51.420;6.788;2022-09-03T15:14:38;3.05;;;1.88;;
41927;SDS011;27616;51.420;6.788;2022-09-03T15:22:35;4.15;;;2.20;;
41927;SDS011;27616;51.420;6.788;2022-09-03T15:25:22;5.18;;;2.10;;
41927;SDS011;27616;51.420;6.788;2022-09-03T15:31:08;4.50;;;2.08;;
41927;SDS011;27616;51.420;6.788;2022-09-03T15:34:31;3.58;;;2.00;;
41927;SDS011;27616;51.420;6.788;2022-09-03T15:36:44;2.40;;;2.00;;
41927;SDS011;27616;51.420;6.788;2022-09-03T15:39:17;5.03;;;2.40;;
41927;SDS011;27616;51.420;6.788;2022-09-03T15:42:00;3.75;;;2.25;;
41927;SDS011;27616;51.420;6.788;2022-09-03T15:44:50;4.10;;;1.90;;
41927;SDS011;27616;51.420;6.788;2022-09-03T15:50:02;3.30;;;1.90;;
41927;SDS011;27616;51.420;6.788;2022-09-03T15:55:43;3.53;;;2.08;;
41927;SDS011;27616;51.420;6.788;2022-09-03T16:12:19;3.50;;;2.10;;
41927;SDS011;27616;51.420;6.788;2022-09-03T16:15:16;3.25;;;2.13;;
41927;SDS011;27616;51.420;6.788;2022-09-03T16:22:53;3.08;;;2.20;;
41927;SDS011;27616;51.420;6.788;2022-09-03T16:29:12;3.75;;;2.60;;
41927;SDS011;27616;51.420;6.788;2022-09-03T16:31:09;3.70;;;2.40;;
41927;SDS011;27616;51.420;6.788;2022-09-03T16:33:54;5.13;;;2.53;;
41927;SDS011;27616;51.420;6.788;2022-09-03T16:36:34;3.30;;;2.20;;
41927;SDS011;27616;51.420;6.788;2022-09-03T16:56:40;3.83;;;2.80;;
41927;SDS011;27616;51.420;6.788;2022-09-03T16:59:01;3.60;;;2.65;;
41927;SDS011;27616;51.420;6.788;2022-09-03T17:02:25;3.42;;;2.33;;
41927;SDS011;27616;51.420;6.788;2022-09-03T17:21:33;4.63;;;2.30;;
41927;SDS011;27616;51.420;6.788;2022-09-03T17:49:45;3.83;;;1.70;;
41927;SDS011;27616;51.420;6.788;2022-09-03T17:52:35;2.55;;;1.60;;
41927;SDS011;27616;51.420;6.788;2022-09-03T18:01:26;2.63;;;1.95;;
41927;SDS011;27616;51.420;6.788;2022-09-03T18:06:29;3.58;;;1.98;;
41927;SDS011;27616;51.420;6.788;2022-09-03T18:09:02;3.08;;;1.90;;
41927;SDS011;27616;51.420;6.788;2022-09-03T18:11:37;3.72;;;2.10;;
41927;SDS011;27616;51.420;6.788;2022-09-03T18:16:31;3.28;;;2.30;;
41927;SDS011;27616;51.420;6.788;2022-09-03T18:19:13;2.50;;;1.70;;
41927;SDS011;27616;51.420;6.788;2022-09-03T18:22:25;3.65;;;2.05;;
41927;SDS011;27616;51.420;6.788;2022-09-03T18:25:14;3.20;;;2.13;;
41927;SDS011;27616;51.420;6.788;2022-09-03T18:28:02;3.53;;;2.22;;
41927;SDS011;27616;51.420;6.788;2022-09-03T18:30:49;2.60;;;2.00;;
41927;SDS011;27616;51.420;6.788;2022-09-03T18:33:34;2.67;;;2.00;;
41927;SDS011;27616;51.420;6.788;2022-09-03T18:36:19;3.05;;;2.05;;
41927;SDS011;27616;51.420;6.788;2022-09-03T18:39:13;5.13;;;2.13;;
41927;SDS011;27616;51.420;6.788;2022-09-03T18:42:11;3.33;;;2.00;;
41927;SDS011;27616;51.420;6.788;2022-09-03T18:48:30;4.03;;;1.92;;
41927;SDS011;27616;51.420;6.788;2022-09-03T18:57:47;2.72;;;1.75;;
41927;SDS011;27616;51.420;6.788;2022-09-03T19:10:13;4.40;;;2.40;;
41927;SDS011;27616;51.420;6.788;2022-09-03T19:19:21;3.88;;;1.95;;
41927;SDS011;27616;51.420;6.788;2022-09-03T19:22:36;3.13;;;2.10;;
41927;SDS011;27616;51.420;6.788;2022-09-03T19:25:23;3.67;;;2.03;;
41927;SDS011;27616;51.420;6.788;2022-09-03T19:28:18;4.40;;;1.95;;
41927;SDS011;27616;51.420;6.788;2022-09-03T19:37:15;4.78;;;2.20;;
41927;SDS011;27616;51.420;6.788;2022-09-03T19:43:32;5.68;;;2.35;;
41927;SDS011;27616;51.420;6.788;2022-09-03T19:52:37;3.65;;;1.90;;
41927;SDS011;27616;51.420;6.788;2022-09-03T19:55:24;4.88;;;2.20;;
41927;SDS011;27616;51.420;6.788;2022-09-03T19:58:10;3.13;;;2.17;;
41927;SDS011;27616;51.420;6.788;2022-09-03T20:00:59;4.00;;;2.15;;
41927;SDS011;27616;51.420;6.788;2022-09-03T20:03:44;4.10;;;1.90;;
41927;SDS011;27616;51.420;6.788;2022-09-03T20:06:28;4.15;;;2.00;;
41927;SDS011;27616;51.420;6.788;2022-09-03T20:09:16;2.83;;;2.03;;
41927;SDS011;27616;51.420;6.788;2022-09-03T20:12:04;3.90;;;2.55;;
41927;SDS011;27616;51.420;6.788;2022-09-03T20:14:32;3.80;;;2.60;;
41927;SDS011;27616;51.420;6.788;2022-09-03T20:23:02;4.43;;;2.45;;
41927;SDS011;27616;51.420;6.788;2022-09-03T20:38:59;4.65;;;2.40;;
41927;SDS011;27616;51.420;6.788;2022-09-03T20:52:54;4.65;;;2.00;;
41927;SDS011;27616;51.420;6.788;2022-09-03T20:56:00;4.32;;;2.20;;
41927;SDS011;27616;51.420;6.788;2022-09-03T20:58:29;4.25;;;2.13;;
41927;SDS011;27616;51.420;6.788;2022-09-03T21:04:16;3.78;;;2.00;;
41927;SDS011;27616;51.420;6.788;2022-09-03T21:06:31;4.43;;;2.28;;
41927;SDS011;27616;51.420;6.788;2022-09-03T21:14:28;2.50;;;1.80;;
41927;SDS011;27616;51.420;6.788;2022-09-03T21:19:54;3.38;;;1.88;;
41927;SDS011;27616;51.420;6.788;2022-09-03T21:25:29;3.67;;;2.08;;
41927;SDS011;27616;51.420;6.788;2022-09-03T21:28:15;2.72;;;1.88;;
41927;SDS011;27616;51.420;6.788;2022-09-03T21:30:48;4.05;;;1.80;;
41927;SDS011;27616;51.420;6.788;2022-09-03T21:33:27;3.35;;;2.25;;
41927;SDS011;27616;51.420;6.788;2022-09-03T21:38:30;3.05;;;1.88;;
41927;SDS011;27616;51.420;6.788;2022-09-03T21:41:09;4.53;;;2.05;;
41927;SDS011;27616;51.420;6.788;2022-09-03T21:43:46;2.35;;;1.63;;
41927;SDS011;27616;51.420;6.788;2022-09-03T21:46:23;2.90;;;1.73;;
41927;SDS011;27616;51.420;6.788;2022-09-03T21:48:55;3.08;;;1.83;;
41927;SDS011;27616;51.420;6.788;2022-09-03T21:54:24;4.00;;;2.10;;
41927;SDS011;27616;51.420;6.788;2022-09-03T22:02:37;3.70;;;2.30;;
41927;SDS011;27616;51.420;6.788;2022-09-03T22:05:04;3.53;;;2.00;;
41927;SDS011;27616;51.420;6.788;2022-09-03T22:15:53;2.90;;;2.00;;
41927;SDS011;27616;51.420;6.788;2022-09-03T22:18:30;3.25;;;1.90;;
41927;SDS011;27616;51.420;6.788;2022-09-03T22:21:03;2.75;;;1.80;;
41927;SDS011;27616;51.420;6.788;2022-09-03T22:23:48;3.47;;;2.17;;
41927;SDS011;27616;51.420;6.788;2022-09-03T22:26:31;4.13;;;2.22;;
41927;SDS011;27616;51.420;6.788;2022-09-03T22:34:55;2.92;;;1.92;;